Terminal Aerodrome Forecast
Issued by NWS Jackson, MS

Home | Current Version | Previous Version | Text Only | Print | Product List | Glossary On
Versions: 1 2 3 4 5 6 7 8 9 10 11 12
000
FTUS44 KMEG 011700
TAFTUP
TAF
KTUP 011720Z 0118/0218 22008KT P6SM SCT040
     FM020100 18003KT P6SM SCT100
     FM020800 19003KT P6SM BKN045
     FM021300 20008KT P6SM VCSH SCT025 BKN045
      TEMPO 0213/0217 BKN025=

USA.gov is the U.S. government's official web portal to all federal, state and local government web resources and services.